Time;durP1;ratioP1;P1;durP2;ratioP2;P2;SDS_P1;SDS_P2;PMS_P1;PMS_P2;Temp;Humidity;BMP_temperature;BMP_pressure;BME280_temperature;BME280_humidity;BME280_pressure;Samples;Min_cycle;Max_cycle;Signal;HPM_P1;HPM_P2
2022/07/20 00:00:09;;;;;;;12.18;4.50;;;;;;;21.20;67.80;100560.51;2729890;86;21745;-83
2022/07/20 00:04:12;;;;;;;8.40;5.03;;;;;;;21.12;66.59;100556.05;2803534;83;21058;-83
2022/07/20 00:08:14;;;;;;;12.43;5.90;;;;;;;21.07;68.53;100550.38;2804049;85;20982;-83
2022/07/20 00:12:15;;;;;;;14.23;5.20;;;;;;;21.10;67.25;100550.52;2765833;85;21706;-83
2022/07/20 00:16:16;;;;;;;16.93;6.80;;;;;;;21.09;66.54;100547.48;2804619;83;21006;-83
2022/07/20 00:20:18;;;;;;;103.65;54.67;;;;;;;21.04;68.38;100547.23;2804527;84;21018;-83
2022/07/20 00:24:19;;;;;;;48.78;26.17;;;;;;;20.91;70.00;100551.42;2838644;82;20993;-83
2022/07/20 00:28:24;;;;;;;23.40;11.53;;;;;;;20.78;70.58;100555.25;2849960;80;20996;-83
2022/07/20 00:32:26;;;;;;;16.62;7.83;;;;;;;20.80;68.51;100561.34;2885763;81;21537;-83
2022/07/20 00:36:27;;;;;;;20.30;7.83;;;;;;;20.80;68.06;100559.49;2926397;80;21035;-83
2022/07/20 00:40:29;;;;;;;13.98;7.55;;;;;;;20.77;67.57;100558.98;2820818;80;21604;-82
2022/07/20 00:44:30;;;;;;;18.98;6.72;;;;;;;20.68;67.16;100560.94;2925340;81;21577;-83
2022/07/20 00:48:31;;;;;;;9.10;5.47;;;;;;;20.59;67.05;100559.37;2920269;80;21075;-83
2022/07/20 00:52:33;;;;;;;13.65;6.12;;;;;;;20.38;68.93;100559.05;2900392;80;21012;-83
2022/07/20 01:10:29;;;;;;;13.30;6.50;;;;;;;20.18;70.43;100555.20;2270102;103;21077;-83
2022/07/20 01:14:30;;;;;;;8.83;5.80;;;;;;;20.14;70.36;100552.02;2253737;104;21084;-83
2022/07/20 01:18:32;;;;;;;15.28;6.47;;;;;;;20.14;69.62;100556.59;2270113;103;21146;-83
2022/07/20 01:22:33;;;;;;;12.00;7.78;;;;;;;20.11;70.35;100543.78;2270478;103;21139;-83
2022/07/20 01:26:34;;;;;;;13.68;7.00;;;;;;;20.01;71.50;100545.88;2270185;103;21141;-83
2022/07/20 01:30:36;;;;;;;13.90;9.15;;;;;;;20.01;71.61;100551.81;2271019;103;21088;-83
2022/07/20 01:34:37;;;;;;;29.60;15.20;;;;;;;19.92;72.88;100547.81;2271946;103;21857;-83
2022/07/20 01:38:38;;;;;;;38.45;18.25;;;;;;;19.88;72.92;100545.64;2241852;105;21717;-83
2022/07/20 01:42:39;;;;;;;49.10;25.50;;;;;;;19.73;73.45;100546.42;2322638;97;21678;-83
2022/07/20 01:46:40;;;;;;;70.37;31.73;;;;;;;19.65;73.08;100553.20;2555953;85;21065;-83
2022/07/20 01:50:41;;;;;;;40.38;22.32;;;;;;;19.67;72.49;100560.64;2818212;83;21069;-83
2022/07/20 01:54:43;;;;;;;20.60;7.78;;;;;;;19.67;71.83;100552.55;2818113;82;21002;-83
2022/07/20 01:58:44;;;;;;;16.57;7.62;;;;;;;19.62;71.17;100546.82;2835755;80;20931;-83
2022/07/20 02:02:45;;;;;;;19.98;6.33;;;;;;;19.54;71.01;100549.06;2917223;80;21534;-83
2022/07/20 02:06:46;;;;;;;14.43;5.35;;;;;;;19.48;70.78;100558.73;2880677;80;21625;-83
2022/07/20 02:10:47;;;;;;;7.92;4.70;;;;;;;19.47;69.94;100548.96;2917049;80;21531;-83
2022/07/20 02:14:48;;;;;;;11.25;5.37;;;;;;;19.36;69.38;100561.00;2917290;80;21007;-82
2022/07/20 02:18:56;;;;;;;11.05;6.45;;;;;;;19.24;69.60;100558.35;2917684;80;21008;-83
2022/07/20 02:22:57;;;;;;;8.13;4.87;;;;;;;19.13;69.80;100555.55;2917240;80;21007;-83
2022/07/20 02:26:58;;;;;;;7.03;3.85;;;;;;;19.00;70.14;100555.25;2917405;80;21027;-83
2022/07/20 02:30:59;;;;;;;9.85;4.53;;;;;;;18.80;69.87;100550.24;2887226;81;20991;-82
2022/07/20 02:35:00;;;;;;;11.85;6.05;;;;;;;18.69;69.78;100555.00;2916786;80;20960;-82
2022/07/20 02:39:03;;;;;;;10.65;6.45;;;;;;;18.60;69.68;100561.94;2917350;80;21656;-83
2022/07/20 02:43:05;;;;;;;10.13;5.65;;;;;;;18.47;69.77;100558.39;2917343;80;20992;-82
2022/07/20 02:47:06;;;;;;;21.07;5.72;;;;;;;18.38;69.96;100558.42;2917033;80;21036;-82
2022/07/20 02:51:07;;;;;;;9.43;5.87;;;;;;;18.29;70.60;100559.46;2757068;82;21573;-83
2022/07/20 02:55:09;;;;;;;23.95;5.50;;;;;;;18.24;72.05;100561.31;2854208;82;21017;-82
2022/07/20 02:59:10;;;;;;;9.80;5.12;;;;;;;18.20;72.66;100557.28;2869185;82;21020;-85
2022/07/20 03:03:11;;;;;;;9.23;4.85;;;;;;;18.22;72.98;100559.30;2785896;82;21050;-85
2022/07/20 03:07:12;;;;;;;10.43;6.78;;;;;;;18.28;73.39;100563.16;2869169;82;21037;-85
2022/07/20 03:11:13;;;;;;;46.08;13.25;;;;;;;18.29;73.29;100560.81;2781890;82;21013;-85
2022/07/20 03:15:15;;;;;;;47.33;11.50;;;;;;;18.32;73.57;100564.99;2871062;81;21537;-85
2022/07/20 03:19:16;;;;;;;109.78;24.43;;;;;;;18.38;73.46;100565.68;2866837;82;20962;-85
2022/07/20 03:23:17;;;;;;;49.85;12.25;;;;;;;18.36;73.69;100571.71;2868553;82;20997;-86
2022/07/20 03:27:18;;;;;;;229.82;53.50;;;;;;;18.38;73.80;100571.89;2869039;82;21013;-85
2022/07/20 03:31:19;;;;;;;74.82;17.52;;;;;;;18.31;75.51;100570.90;2867547;82;21476;-86
2022/07/20 03:35:22;;;;;;;31.87;8.40;;;;;;;18.16;76.75;100569.37;2871155;82;20957;-85
2022/07/20 03:39:24;;;;;;;39.15;11.95;;;;;;;18.22;76.37;100566.52;2867007;82;21592;-85
2022/07/20 03:43:25;;;;;;;95.70;21.75;;;;;;;18.33;76.59;100571.56;2869122;81;21447;-86
2022/07/20 03:47:27;;;;;;;67.65;15.93;;;;;;;18.53;76.00;100575.24;2868585;82;20993;-87
2022/07/20 03:51:28;;;;;;;56.40;12.90;;;;;;;18.63;75.57;100577.22;2861846;82;20974;-87
2022/07/20 03:55:29;;;;;;;25.92;8.23;;;;;;;18.80;74.67;100578.53;2860113;83;21004;-87
2022/07/20 03:59:30;;;;;;;13.48;6.40;;;;;;;18.96;74.98;100585.72;2866327;82;20962;-88
2022/07/20 04:03:32;;;;;;;15.15;6.55;;;;;;;18.89;75.87;100584.25;2859708;81;20994;-88
2022/07/20 04:07:33;;;;;;;72.62;17.67;;;;;;;18.75;77.21;100583.09;2860052;81;20958;-86
2022/07/20 04:11:35;;;;;;;28.87;7.97;;;;;;;18.77;77.07;100582.93;2844186;82;20978;-85
2022/07/20 04:15:36;;;;;;;13.80;7.53;;;;;;;18.98;76.27;100584.58;2860554;83;21001;-85
2022/07/20 04:19:38;;;;;;;12.68;6.70;;;;;;;19.14;76.04;100580.14;2860989;82;21005;-87
2022/07/20 04:23:39;;;;;;;12.03;5.95;;;;;;;19.47;77.01;100583.17;2861611;83;21524;-85
2022/07/20 04:27:40;;;;;;;10.13;5.58;;;;;;;20.18;77.55;100580.84;2840707;82;21009;-84
2022/07/20 04:31:41;;;;;;;14.85;6.80;;;;;;;21.15;76.34;100580.53;2861166;81;21005;-85
2022/07/20 04:35:42;;;;;;;8.63;5.12;;;;;;;22.13;73.86;100581.17;2861242;82;21037;-85
2022/07/20 04:39:43;;;;;;;14.58;7.25;;;;;;;23.15;73.15;100583.53;2861935;82;21001;-85
2022/07/20 04:43:44;;;;;;;23.50;7.22;;;;;;;24.18;69.45;100587.17;2862232;82;21037;-85
2022/07/20 04:47:46;;;;;;;8.53;5.80;;;;;;;25.08;64.91;100585.27;2862063;82;21080;-86
2022/07/20 04:51:47;;;;;;;12.55;5.90;;;;;;;25.95;62.44;100580.42;2859105;82;21340;-84
2022/07/20 04:55:48;;;;;;;9.90;5.40;;;;;;;26.63;60.38;100580.14;2849537;82;21073;-85
2022/07/20 04:59:49;;;;;;;14.55;6.92;;;;;;;27.40;57.96;100584.84;2914774;81;20970;-85
2022/07/20 05:03:51;;;;;;;9.50;5.08;;;;;;;28.17;57.26;100583.31;2915920;79;21044;-85
2022/07/20 05:07:52;;;;;;;9.53;6.30;;;;;;;28.97;54.20;100580.73;2915881;80;20976;-83
2022/07/20 05:11:54;;;;;;;9.73;6.58;;;;;;;29.54;52.74;100575.03;2915861;81;21039;-83
2022/07/20 05:15:55;;;;;;;11.10;5.33;;;;;;;30.08;52.14;100575.98;2916352;80;20996;-83
2022/07/20 05:19:56;;;;;;;14.80;6.60;;;;;;;30.42;50.80;100579.23;2916575;80;20988;-83
2022/07/20 05:23:57;;;;;;;10.55;5.60;;;;;;;30.69;49.48;100573.06;2915382;80;21071;-83
2022/07/20 05:27:58;;;;;;;6.10;5.20;;;;;;;30.87;50.56;100563.67;2914796;80;21004;-83
2022/07/20 05:31:59;;;;;;;8.20;4.15;;;;;;;31.39;49.34;100562.93;2916211;80;21007;-83
2022/07/20 05:36:02;;;;;;;10.13;5.92;;;;;;;31.85;47.78;100566.69;2915822;81;20984;-83
2022/07/20 05:40:05;;;;;;;9.15;5.00;;;;;;;32.32;47.19;100572.81;2915971;80;21001;-83
2022/07/20 05:44:06;;;;;;;5.33;4.72;;;;;;;32.68;46.34;100571.39;2916849;80;21004;-83
2022/07/20 05:48:10;;;;;;;8.28;4.70;;;;;;;32.75;45.42;100567.30;2917719;80;20960;-83
2022/07/20 05:52:11;;;;;;;6.25;4.40;;;;;;;32.58;45.72;100578.48;2893022;81;21044;-83
2022/07/20 05:56:12;;;;;;;4.33;3.60;;;;;;;32.84;45.99;100575.88;2885886;82;21058;-83
2022/07/20 06:00:14;;;;;;;10.23;6.17;;;;;;;33.01;45.35;100575.70;2885972;82;20993;-83
2022/07/20 06:04:15;;;;;;;6.75;4.62;;;;;;;33.27;44.96;100577.14;2881764;82;21049;-83
2022/07/20 06:08:16;;;;;;;5.37;4.00;;;;;;;33.60;44.15;100573.66;2880980;82;20981;-84
2022/07/20 06:12:17;;;;;;;5.87;3.80;;;;;;;33.71;43.75;100580.01;2885953;82;21036;-83
2022/07/20 06:16:23;;;;;;;7.08;4.17;;;;;;;33.86;43.65;100581.12;2886457;82;20992;-83
2022/07/20 06:20:24;;;;;;;6.67;3.55;;;;;;;33.98;43.67;100587.20;2885893;81;21000;-83
2022/07/20 06:24:26;;;;;;;7.67;4.08;;;;;;;33.68;42.97;100592.13;2885839;81;20961;-83
2022/07/20 06:28:27;;;;;;;48.92;12.35;;;;;;;33.52;44.48;100588.00;2852170;82;20985;-83
2022/07/20 06:32:28;;;;;;;10.90;4.80;;;;;;;33.44;44.03;100586.60;2886083;82;20989;-83
2022/07/20 06:36:29;;;;;;;10.32;5.03;;;;;;;33.81;44.01;100586.65;2880731;81;21003;-83
2022/07/20 06:40:31;;;;;;;6.55;4.12;;;;;;;34.22;43.35;100592.17;2880092;81;21012;-83
2022/07/20 06:44:32;;;;;;;15.53;3.80;;;;;;;34.55;43.80;100591.30;2884535;81;20962;-84
2022/07/20 06:48:36;;;;;;;17.70;3.87;;;;;;;34.87;42.23;100589.25;2886142;81;20981;-83
2022/07/20 06:52:38;;;;;;;4.65;3.85;;;;;;;35.09;42.19;100587.53;2901115;80;20961;-83
2022/07/20 06:56:39;;;;;;;6.85;2.98;;;;;;;35.38;41.42;100588.76;2904070;81;21005;-83
2022/07/20 07:00:41;;;;;;;4.90;3.20;;;;;;;35.59;41.55;100593.64;2850724;80;21008;-83
2022/07/20 07:04:42;;;;;;;21.73;6.25;;;;;;;35.71;40.99;100594.66;2902564;80;21000;-83
2022/07/20 07:08:43;;;;;;;7.00;3.37;;;;;;;35.70;40.20;100586.90;2905524;81;21008;-83
2022/07/20 07:12:44;;;;;;;4.10;2.50;;;;;;;35.84;40.71;100593.97;2905310;80;21008;-83
2022/07/20 07:16:45;;;;;;;5.62;3.83;;;;;;;35.97;39.94;100588.36;2900002;80;20973;-83
2022/07/20 07:20:46;;;;;;;9.73;4.20;;;;;;;36.13;39.89;100592.38;2913392;80;21655;-84
2022/07/20 07:24:48;;;;;;;6.35;3.90;;;;;;;36.06;39.54;100591.90;2903538;81;38715;-83
2022/07/20 07:28:49;;;;;;;5.83;4.08;;;;;;;36.10;39.29;100583.27;2903477;81;21012;-84
2022/07/20 07:32:50;;;;;;;14.78;4.58;;;;;;;36.36;39.28;100589.93;2891160;81;21493;-84
2022/07/20 07:37:40;;;;;;;5.10;3.00;;;;;;;36.15;39.03;100583.22;2901978;81;21056;-83
2022/07/20 07:41:41;;;;;;;8.30;3.08;;;;;;;36.06;38.91;100579.45;2881132;80;20964;-83
2022/07/20 07:45:42;;;;;;;4.15;2.95;;;;;;;36.51;39.08;100585.62;2895411;80;21019;-83
2022/07/20 07:49:43;;;;;;;4.37;2.35;;;;;;;36.67;37.82;100578.55;2900077;80;20979;-83
2022/07/20 07:53:44;;;;;;;6.80;3.40;;;;;;;36.97;37.59;100589.00;2883285;82;20973;-83
2022/07/20 07:57:46;;;;;;;9.55;3.52;;;;;;;37.32;37.73;100583.28;2885433;82;21017;-84
2022/07/20 08:01:47;;;;;;;5.22;2.60;;;;;;;37.60;37.23;100582.04;2812713;82;21568;-84
2022/07/20 08:05:49;;;;;;;11.90;3.52;;;;;;;37.62;36.91;100582.01;2887751;81;21010;-84
2022/07/20 08:09:50;;;;;;;7.00;3.87;;;;;;;37.56;37.47;100576.30;2875565;81;21631;-84
2022/07/20 08:13:53;;;;;;;6.00;3.35;;;;;;;37.50;36.73;100566.37;2886781;81;21094;-84
2022/07/20 08:17:54;;;;;;;8.55;2.67;;;;;;;37.46;37.25;100565.31;2885450;82;20969;-84
2022/07/20 08:21:56;;;;;;;13.18;4.58;;;;;;;37.67;37.46;100538.91;2876267;81;21536;-84
2022/07/20 08:25:57;;;;;;;11.35;3.52;;;;;;;37.93;36.58;100557.08;2842575;81;21033;-84
2022/07/20 08:29:59;;;;;;;3.65;2.72;;;;;;;38.03;36.61;100553.33;2897114;81;21007;-84
2022/07/20 08:34:00;;;;;;;13.28;3.40;;;;;;;37.99;36.82;100548.39;2885746;81;21071;-84
2022/07/20 08:38:01;;;;;;;9.55;3.33;;;;;;;38.08;35.92;100553.22;2885398;82;21031;-84
2022/07/20 08:42:03;;;;;;;15.03;3.02;;;;;;;38.09;35.39;100552.09;2881933;81;21014;-84
2022/07/20 08:46:05;;;;;;;7.50;2.85;;;;;;;38.09;35.60;100541.83;2877036;81;21012;-84
2022/07/20 08:50:07;;;;;;;6.58;2.62;;;;;;;38.22;35.79;100544.35;2887084;81;20996;-85
2022/07/20 08:54:08;;;;;;;8.73;2.52;;;;;;;38.10;33.52;100541.24;2897620;80;21068;-84
2022/07/20 08:58:11;;;;;;;5.75;2.22;;;;;;;38.04;33.10;100550.80;2925178;80;21004;-84
2022/07/20 09:02:13;;;;;;;79.65;14.38;;;;;;;38.07;32.89;100550.19;2901565;80;20996;-85
2022/07/20 09:06:14;;;;;;;8.23;2.95;;;;;;;38.04;33.29;100547.48;2882679;81;21021;-85
2022/07/20 09:10:21;;;;;;;5.10;2.33;;;;;;;38.13;33.08;100550.38;2906461;79;21044;-85
2022/07/20 09:14:49;;;;;;;7.87;2.58;;;;;;;38.26;31.84;100548.16;2887356;80;21010;-85
2022/07/20 09:18:54;;;;;;;3.80;1.98;;;;;;;37.98;32.64;100553.68;2904219;80;21016;-85
2022/07/20 09:23:05;;;;;;;4.72;2.42;;;;;;;38.05;32.40;100546.90;2871988;80;21016;-85
2022/07/20 09:27:06;;;;;;;5.42;2.20;;;;;;;38.11;32.65;100543.72;2877553;82;20988;-85
2022/07/20 09:31:20;;;;;;;6.65;2.77;;;;;;;38.06;32.27;100548.55;2909445;80;20968;-85
2022/07/20 09:35:22;;;;;;;;;;;;;;;38.07;30.96;100540.47;2906418;81;20985;-84
2022/07/20 09:39:23;;;;;;;5.95;2.75;;;;;;;38.03;30.73;100534.73;2852940;81;20105;-84
2022/07/20 09:43:31;;;;;;;12.95;3.47;;;;;;;37.79;31.65;100540.39;2904613;80;21390;-84
2022/07/20 09:47:32;;;;;;;6.10;2.35;;;;;;;37.70;32.51;100534.13;2840273;82;21504;-85
2022/07/20 09:51:49;;;;;;;9.15;3.00;;;;;;;37.94;32.49;100526.80;2895859;81;21116;-85
2022/07/20 09:55:52;;;;;;;4.25;2.67;;;;;;;38.05;32.93;100521.91;2898172;80;21057;-85
2022/07/20 09:59:55;;;;;;;3.33;2.30;;;;;;;38.20;32.61;100520.78;2896703;81;21051;-85
2022/07/20 10:04:00;;;;;;;6.35;2.52;;;;;;;38.36;33.12;100521.33;2907522;80;21020;-85
2022/07/20 10:08:05;;;;;;;7.70;3.10;;;;;;;38.48;32.69;100519.45;2902741;81;21074;-86
2022/07/20 10:12:07;;;;;;;5.58;2.95;;;;;;;38.58;32.83;100516.44;2876791;82;21044;-84
2022/07/20 10:16:33;;;;;;;4.53;2.67;;;;;;;38.46;31.84;100516.97;2873159;80;21390;-84
2022/07/20 10:20:36;;;;;;;5.10;2.65;;;;;;;38.31;31.42;100515.84;2900488;80;20953;-84
2022/07/20 10:24:42;;;;;;;4.45;2.72;;;;;;;38.15;31.87;100510.05;2903342;80;21084;-84
2022/07/20 10:28:42;;;;;;;4.40;2.85;;;;;;;38.02;32.03;100514.20;2903246;80;21023;-83
2022/07/20 10:32:57;;;;;;;6.28;2.58;;;;;;;38.00;32.71;100511.17;2877622;81;21009;-84
2022/07/20 10:37:38;;;;;;;3.40;2.62;;;;;;;37.93;32.26;100507.95;2879466;81;21048;-83
2022/07/20 10:41:44;;;;;;;4.05;3.00;;;;;;;37.67;32.72;100512.55;2876962;82;21024;-82
2022/07/20 10:45:46;;;;;;;8.40;3.10;;;;;;;37.53;32.27;100504.74;2883258;81;21013;-84
2022/07/20 10:50:05;;;;;;;4.08;2.85;;;;;;;37.49;32.69;100504.52;2864370;81;21548;-85
2022/07/20 10:54:34;;;;;;;5.58;2.85;;;;;;;37.65;34.26;100498.74;2748967;82;21008;-85
2022/07/20 10:58:38;;;;;;;7.35;3.08;;;;;;;37.70;32.71;100503.61;2794078;83;21565;-86
2022/07/20 11:02:39;;;;;;;4.47;2.90;;;;;;;37.76;32.31;100498.00;2791950;83;21038;-87
2022/07/20 11:06:41;;;;;;;5.62;3.10;;;;;;;37.65;31.98;100496.77;2796339;84;21011;-85
2022/07/20 11:10:42;;;;;;;40.55;29.45;;;;;;;37.53;32.13;100497.26;2798239;83;21065;-85
2022/07/20 11:14:54;;;;;;;11.83;10.72;;;;;;;37.50;32.90;100492.88;2796625;83;21375;-87
2022/07/20 11:18:57;;;;;;;11.78;6.50;;;;;;;37.54;31.57;100491.97;2768258;84;21091;-85
2022/07/20 11:23:01;;;;;;;8.60;7.03;;;;;;;37.48;31.46;100494.55;2822472;83;21018;-86
2022/07/20 11:27:15;;;;;;;4.58;3.90;;;;;;;37.39;32.02;100497.73;2798793;83;21002;-85
2022/07/20 11:31:20;;;;;;;6.33;4.20;;;;;;;37.37;32.14;100495.28;2774760;84;21020;-84
2022/07/20 11:35:22;;;;;;;6.12;3.60;;;;;;;37.38;32.02;100485.00;2777368;84;21018;-85
2022/07/20 11:39:23;;;;;;;6.87;4.08;;;;;;;37.58;31.74;100483.29;2764316;83;21044;-85
2022/07/20 11:43:24;;;;;;;4.53;3.30;;;;;;;37.62;31.39;100489.06;2810338;83;21007;-86
2022/07/20 11:47:26;;;;;;;4.70;3.80;;;;;;;37.68;32.66;100473.97;2743580;85;21031;-85
2022/07/20 11:51:29;;;;;;;5.83;3.92;;;;;;;37.97;31.65;100476.22;2754560;84;21537;-85
2022/07/20 11:55:35;;;;;;;15.83;4.12;;;;;;;38.23;31.31;100475.18;2878699;81;21006;-85
2022/07/20 11:59:45;;;;;;;6.83;4.58;;;;;;;38.13;30.50;100469.84;2878035;81;21014;-85
2022/07/20 12:03:51;;;;;;;5.60;4.58;;;;;;;38.02;30.35;100465.62;2784868;84;21024;-86
2022/07/20 12:08:10;;;;;;;6.90;4.33;;;;;;;37.99;30.43;100456.78;2839879;81;21044;-86
2022/07/20 12:12:44;;;;;;;7.72;4.15;;;;;;;38.04;30.90;100458.64;2831052;83;21011;-86
2022/07/20 12:16:15;;;;;;;7.57;4.43;;;;;;;37.90;29.99;100452.22;2853276;81;21022;-86
2022/07/20 12:20:16;;;;;;;7.53;4.15;;;;;;;37.82;30.48;100450.97;2797496;84;21019;-86
2022/07/20 12:24:18;;;;;;;19.23;4.45;;;;;;;37.84;30.05;100463.42;2775582;84;20995;-86
2022/07/20 12:28:37;;;;;;;7.40;3.75;;;;;;;37.93;29.87;100458.53;2777704;82;21032;-85
2022/07/20 12:32:38;;;;;;;4.28;3.35;;;;;;;37.99;29.68;100458.16;2883020;81;20951;-86
2022/07/20 12:36:50;;;;;;;6.25;4.12;;;;;;;38.04;29.60;100453.09;2868241;81;21014;-85
2022/07/20 12:40:51;;;;;;;5.92;3.90;;;;;;;37.96;30.20;100450.98;2867898;81;20967;-85
2022/07/20 12:45:05;;;;;;;7.80;4.65;;;;;;;37.80;30.25;100454.04;2787125;84;21008;-85
2022/07/20 12:49:06;;;;;;;20.00;4.83;;;;;;;37.94;30.22;100441.59;2876402;81;21007;-86
2022/07/20 12:53:07;;;;;;;4.95;2.72;;;;;;;37.99;30.38;100439.28;2882489;80;21353;-87
2022/07/20 12:57:09;;;;;;;9.93;3.65;;;;;;;37.95;30.10;100442.39;2921047;80;21007;-86
2022/07/20 13:01:11;;;;;;;6.97;4.25;;;;;;;38.03;30.81;100432.56;2863378;80;20970;-85
2022/07/20 13:05:12;;;;;;;8.40;3.92;;;;;;;38.14;29.64;100429.84;2927966;80;20983;-85
2022/07/20 13:09:16;;;;;;;5.03;3.62;;;;;;;38.39;30.37;100416.54;2916571;80;21066;-84
2022/07/20 13:13:18;;;;;;;5.60;3.10;;;;;;;38.39;30.37;100416.54;2901287;80;21077;-84
2022/07/20 13:17:19;;;;;;;5.12;3.95;;;;;;;38.53;29.86;100417.37;2898940;80;20996;-85
2022/07/20 13:21:22;;;;;;;5.72;4.45;;;;;;;38.70;30.29;100415.86;2904624;80;21018;-85
2022/07/20 13:25:23;;;;;;;6.92;3.62;;;;;;;38.80;30.05;100414.24;2940859;80;21008;-83
2022/07/20 13:29:24;;;;;;;4.33;3.22;;;;;;;38.98;30.04;100408.85;2919257;80;21027;-85
2022/07/20 13:33:26;;;;;;;7.10;3.58;;;;;;;39.21;31.26;100411.62;2914551;79;21386;-85
2022/07/20 13:37:27;;;;;;;11.25;4.58;;;;;;;39.38;30.36;100408.14;2899255;80;21048;-86
2022/07/20 13:41:28;;;;;;;6.62;3.75;;;;;;;39.38;29.77;100410.37;2900145;80;21001;-85
2022/07/20 13:45:29;;;;;;;5.87;3.80;;;;;;;39.05;29.29;100406.44;2900614;80;21000;-84
2022/07/20 13:49:30;;;;;;;5.03;3.72;;;;;;;38.73;30.44;100406.08;2902949;80;21008;-85
2022/07/20 13:53:33;;;;;;;18.87;4.65;;;;;;;38.71;30.21;100395.27;2879006;81;21034;-85
2022/07/20 13:57:35;;;;;;;13.13;4.50;;;;;;;38.54;30.10;100396.78;2849377;82;20979;-85
2022/07/20 14:01:43;;;;;;;9.03;5.05;;;;;;;38.50;29.95;100394.35;2891256;81;21052;-85
2022/07/20 14:05:44;;;;;;;10.75;4.20;;;;;;;38.51;30.18;100391.83;2808130;84;21050;-85
2022/07/20 14:09:46;;;;;;;6.78;3.83;;;;;;;38.56;30.47;100378.39;2780442;84;20979;-85
2022/07/20 14:13:47;;;;;;;7.12;3.12;;;;;;;38.60;31.31;100378.59;2816787;83;21095;-85
2022/07/20 14:17:48;;;;;;;5.90;3.70;;;;;;;38.83;30.97;100369.14;2826842;82;21498;-85
2022/07/20 14:21:49;;;;;;;4.05;3.65;;;;;;;38.90;30.75;100377.59;2843728;82;21076;-85
2022/07/20 14:25:50;;;;;;;6.75;4.17;;;;;;;38.73;29.85;100375.52;2846219;82;20970;-85
2022/07/20 14:29:52;;;;;;;4.00;3.12;;;;;;;38.65;29.96;100374.30;2852243;82;20967;-84
2022/07/20 14:33:53;;;;;;;5.03;3.33;;;;;;;38.61;29.81;100366.34;2852532;82;21010;-85
2022/07/20 14:37:54;;;;;;;10.53;4.58;;;;;;;38.57;30.08;100362.81;2840815;82;21015;-84
2022/07/20 14:41:55;;;;;;;7.25;3.90;;;;;;;38.53;30.57;100366.52;2845663;83;20997;-85
2022/07/20 14:45:57;;;;;;;5.15;3.33;;;;;;;38.45;30.60;100361.14;2853005;82;20940;-84
2022/07/20 14:49:58;;;;;;;13.22;4.42;;;;;;;38.33;30.62;100356.69;2815588;82;20998;-85
2022/07/20 14:53:59;;;;;;;4.20;3.35;;;;;;;38.50;30.28;100358.83;2892727;80;21060;-86
2022/07/20 14:58:00;;;;;;;11.88;3.80;;;;;;;38.63;30.51;100346.02;2896757;81;20973;-86
2022/07/20 15:02:02;;;;;;;15.18;3.98;;;;;;;38.78;29.82;100348.98;2921081;80;21005;-90
2022/07/20 15:06:04;;;;;;;6.28;3.75;;;;;;;38.72;29.94;100345.53;2906447;81;20954;-85
2022/07/20 15:10:07;;;;;;;5.47;3.52;;;;;;;38.57;29.84;100341.98;2903322;81;21379;-85
2022/07/20 15:14:08;;;;;;;5.90;3.30;;;;;;;38.50;30.17;100346.32;2878865;81;21021;-85
2022/07/20 15:18:10;;;;;;;5.20;3.90;;;;;;;38.49;31.50;100335.77;2801860;81;21019;-85
2022/07/20 15:22:11;;;;;;;3.90;3.47;;;;;;;38.43;30.50;100338.38;2883213;81;21008;-85
2022/07/20 15:26:12;;;;;;;7.40;3.25;;;;;;;38.00;30.68;100335.44;2881452;81;21016;-85
2022/07/20 15:30:13;;;;;;;5.08;4.08;;;;;;;37.99;30.54;100334.63;2878574;82;20997;-85
2022/07/20 15:34:15;;;;;;;7.00;3.05;;;;;;;38.04;30.32;100334.27;2885297;81;21069;-85
2022/07/20 15:38:16;;;;;;;9.48;3.87;;;;;;;37.98;31.08;100332.16;2882995;82;20965;-85
2022/07/20 15:42:17;;;;;;;7.25;4.22;;;;;;;37.96;31.15;100322.73;2855225;82;21037;-85
2022/07/20 15:46:19;;;;;;;7.60;3.75;;;;;;;37.96;31.57;100329.68;2883792;81;21000;-85
2022/07/20 15:50:20;;;;;;;8.78;3.27;;;;;;;37.91;30.89;100320.63;2864008;81;21642;-85
2022/07/20 15:54:22;;;;;;;5.20;3.10;;;;;;;37.83;30.83;100320.24;2858549;81;21028;-85
2022/07/20 15:58:23;;;;;;;5.70;3.15;;;;;;;37.61;31.42;100316.80;2863366;81;20996;-85
2022/07/20 16:02:26;;;;;;;8.48;3.27;;;;;;;37.63;31.05;100318.69;2914535;80;21028;-85
2022/07/20 16:06:27;;;;;;;5.00;3.02;;;;;;;37.63;31.22;100313.70;2885205;81;21054;-85
2022/07/20 16:10:30;;;;;;;11.45;3.55;;;;;;;37.62;31.92;100317.05;2889245;81;21314;-85
2022/07/20 16:14:31;;;;;;;5.20;3.02;;;;;;;37.64;32.02;100316.17;2891801;81;20985;-85
2022/07/20 16:18:32;;;;;;;6.60;3.60;;;;;;;37.43;31.58;100312.94;2889794;81;21052;-85
2022/07/20 16:22:33;;;;;;;4.58;2.87;;;;;;;37.32;31.93;100312.31;2886660;81;21009;-85
2022/07/20 16:26:35;;;;;;;5.80;2.75;;;;;;;37.21;32.22;100305.34;2872042;81;21025;-86
2022/07/20 16:30:36;;;;;;;6.90;3.80;;;;;;;37.21;31.97;100308.92;2864567;81;21011;-86
2022/07/20 16:34:40;;;;;;;5.47;3.12;;;;;;;37.06;31.67;100308.64;2888064;81;21013;-85
2022/07/20 16:38:41;;;;;;;12.20;4.55;;;;;;;36.98;31.79;100303.78;2891219;82;20986;-86
2022/07/20 16:42:42;;;;;;;8.70;3.10;;;;;;;36.92;32.08;100299.43;2894548;81;21040;-86
2022/07/20 16:46:44;;;;;;;6.35;3.30;;;;;;;36.83;32.41;100300.14;2859915;81;20993;-85
2022/07/20 16:50:45;;;;;;;5.45;2.87;;;;;;;36.67;32.65;100300.12;2845288;82;21000;-85
2022/07/20 16:54:46;;;;;;;11.30;3.50;;;;;;;36.47;32.73;100306.22;2841782;81;21028;-85
2022/07/20 16:58:47;;;;;;;15.05;5.42;;;;;;;36.33;32.29;100299.23;2933696;80;21035;-85
2022/07/20 17:02:49;;;;;;;7.75;3.85;;;;;;;36.18;32.32;100296.14;2925956;80;21069;-84
2022/07/20 17:06:52;;;;;;;6.90;4.45;;;;;;;36.10;31.84;100292.64;2926554;80;20996;-89
2022/07/20 17:10:54;;;;;;;6.95;5.00;;;;;;;36.05;31.89;100292.72;2940377;80;20992;-83
2022/07/20 17:14:55;;;;;;;11.78;5.17;;;;;;;36.05;32.00;100288.56;2937731;80;21007;-84
2022/07/20 17:19:23;;;;;;;7.67;4.60;;;;;;;35.99;32.33;100298.30;2932634;80;20999;-85
2022/07/20 17:22:59;;;;;;;6.80;4.60;;;;;;;35.81;32.81;100298.52;2864303;81;21030;-85
2022/07/20 17:27:00;;;;;;;8.40;6.60;;;;;;;35.74;32.73;100300.25;2854640;82;20958;-90
2022/07/20 17:31:01;;;;;;;11.68;6.42;;;;;;;35.59;32.72;100301.27;2886724;81;21016;-87
2022/07/20 17:35:04;;;;;;;9.25;6.37;;;;;;;35.43;32.96;100297.83;2886399;81;21011;-94
2022/07/20 17:39:08;;;;;;;14.53;7.25;;;;;;;35.25;33.21;100301.34;2886430;81;21013;-89
2022/07/20 17:43:09;;;;;;;36.80;9.95;;;;;;;35.12;33.67;100298.72;2882250;81;21038;-90
2022/07/20 17:47:11;;;;;;;9.30;6.03;;;;;;;34.85;34.09;100295.33;2840767;81;21032;-92
2022/07/20 17:51:12;;;;;;;11.38;5.50;;;;;;;34.62;34.29;100287.22;2879773;82;20987;-92
2022/07/20 17:55:13;;;;;;;9.08;5.65;;;;;;;34.42;34.69;100288.98;2831735;82;21106;-90
2022/07/20 17:59:16;;;;;;;8.23;5.25;;;;;;;34.23;34.95;100290.23;2734973;85;21173;-92
2022/07/20 18:03:17;;;;;;;8.55;5.17;;;;;;;33.96;35.55;100292.00;2879888;80;21098;-93
2022/07/20 18:07:19;;;;;;;18.57;8.55;;;;;;;33.70;35.75;100289.33;2858878;82;21055;-92
2022/07/20 18:11:20;;;;;;;36.80;9.78;;;;;;;33.42;36.16;100284.70;2777940;84;21030;-92
2022/07/20 18:15:21;;;;;;;25.00;7.67;;;;;;;33.24;36.27;100280.63;2788639;82;21058;-89
2022/07/20 18:19:23;;;;;;;10.35;6.03;;;;;;;33.05;36.27;100281.20;2872917;80;21555;-92
2022/07/20 18:23:24;;;;;;;6.15;4.97;;;;;;;32.89;36.51;100285.88;2875435;81;21066;-91
2022/07/20 18:27:25;;;;;;;11.18;6.03;;;;;;;32.66;36.84;100288.63;2800383;83;21008;-91
2022/07/20 18:31:27;;;;;;;8.08;5.47;;;;;;;32.42;36.92;100286.37;2772644;83;21036;-90
2022/07/20 18:35:28;;;;;;;20.35;6.30;;;;;;;32.18;37.48;100285.47;2752960;84;21026;-92
2022/07/20 18:39:30;;;;;;;15.05;6.40;;;;;;;32.00;37.88;100288.98;2692936;84;20999;-90
2022/07/20 18:43:32;;;;;;;14.93;7.10;;;;;;;31.83;38.21;100285.62;2759178;85;21025;-88
2022/07/20 18:47:33;;;;;;;13.93;6.37;;;;;;;31.68;38.41;100286.35;2768533;85;21021;-88
2022/07/20 18:51:35;;;;;;;15.05;5.90;;;;;;;31.53;38.43;100292.05;2771280;84;21027;-87
2022/07/20 18:55:36;;;;;;;21.12;10.25;;;;;;;31.34;38.78;100299.91;2790450;82;21009;-88